Flight Track Log - Related Links

Times and Time Zones

All times are in EDT time to prevent confusion due to time zone crossing. See the DLA1905 flight status page for this flight to view local times or setup timezone preferences in your user account.

Time Position Orientation Groundspeed Altitude Reporting Facility
EDT Latitude Longitude Course Direction KTS MPH feet Rate Location/Type
Fri 01:26:00 AM 46.6740 9.4981 40° Northeast  Level Estimated
Fri 01:27:00 AM 46.7347 9.5773 42° Northeast  Level Estimated
Fri 01:28:00 AM 46.7954 9.6566 42° Northeast  Level Estimated
Fri 01:29:00 AM 46.8560 9.7362 42° Northeast  Level Estimated
Fri 01:30:00 AM 46.9166 9.8159 42° Northeast  Level Estimated
Fri 01:31:00 AM 46.9771 9.8958 42° Northeast  Level Estimated
Fri 01:32:00 AM 47.0376 9.9759 42° Northeast  Level Estimated
Fri 01:33:00 AM 47.0979 10.0561 42° Northeast  Level Estimated
Fri 01:34:00 AM 47.1583 10.1366 42° Northeast  Level Estimated
Fri 01:35:00 AM 47.2279 10.2298 42° Northeast  Level Estimated
Fri 01:36:00 AM 47.2975 10.3232 42° Northeast  Level Estimated
Fri 01:37:00 AM 47.3670 10.4169 42° Northeast  Level Estimated
Fri 01:38:00 AM 47.4364 10.5108 42° Northeast  Level Estimated
Fri 01:39:00 AM 47.5058 10.6050 43° Northeast  Level Estimated
Fri 01:40:00 AM 47.5751 10.6994 43° Northeast  Level Estimated
Fri 01:41:00 AM 47.6442 10.7941 43° Northeast  Level Estimated
Fri 01:42:00 AM 47.7134 10.8890 43° Northeast  Level Estimated
Fri 01:43:00 AM 47.7824 10.9842 43° Northeast  Level Estimated
Fri 01:44:00 AM 47.8514 11.0796 43° Northeast  Level Estimated
Fri 01:45:00 AM 47.9202 11.1753 43° Northeast  Level Estimated
Fri 01:46:00 AM 47.9890 11.2712 43° Northeast  Level Estimated
Fri 01:47:00 AM 48.0578 11.3674 43° Northeast  Level Estimated
Fri 01:48:00 AM 48.1264 11.4639 43° Northeast  Level Estimated
Fri 01:49:00 AM 48.1950 11.5606 43° Northeast  Level Estimated
Fri 01:50:00 AM 48.2634 11.6575 43° Northeast  Level Estimated
Fri 01:51:00 AM 48.3318 11.7548 43° Northeast  Level Estimated
Fri 01:52:00 AM 48.3538 11.7861 43° Northeast  Level Estimated
Fri 01:53:00 AM 48.3538 11.7861 318° Northwest  Level Estimated
Fri 01:54:00 AM 48.3538 11.7861 318° Northwest  Level Estimated
Fri 01:55:00 AM 48.3538 11.7861 318° Northwest  Level Estimated
Fri 01:56:00 AM 48.3538 11.7861 318° Northwest  Level Estimated
Fri 01:57:00 AM 48.3538 11.7861 318° Northwest  Level Estimated
Fri 01:58:00 AM 48.3538 11.7861 318° Northwest  Level Estimated
Fri 01:59:00 AM 48.3538 11.7861 318° Northwest  Level Estimated
Fri 02:00:00 AM 48.3538 11.7861 318° Northwest  Level Estimated
Fri 02:01:00 AM 48.3538 11.7861 318° Northwest  Level Estimated
Fri 02:02:00 AM 48.3538 11.7861 318° Northwest  Level Estimated
Fri 02:03:00 AM 48.3538 11.7861 318° Northwest  Level Estimated

Login

Don't have an account? Register now (free) for customized features, flight alerts, and more!